createdAt,value
2024-04-14T00:00:45.994Z,100.00
2024-04-14T00:02:49.358Z,100.00
2024-04-14T00:04:55.311Z,100.00
2024-04-14T00:06:58.732Z,100.00
2024-04-14T00:09:02.045Z,100.00
2024-04-14T00:11:05.682Z,100.00
2024-04-14T00:13:08.810Z,100.00
2024-04-14T00:15:11.863Z,100.00
2024-04-14T00:17:17.411Z,100.00
2024-04-14T00:19:22.797Z,100.00
2024-04-14T00:21:29.209Z,100.00
2024-04-14T00:23:32.431Z,100.00
2024-04-14T00:25:36.465Z,100.00
2024-04-14T00:27:39.905Z,100.00
2024-04-14T00:29:43.018Z,100.00
2024-04-14T00:31:46.469Z,100.00
2024-04-14T00:33:52.293Z,100.00
2024-04-14T00:35:55.358Z,100.00
2024-04-14T00:38:01.370Z,100.00
2024-04-14T00:40:05.210Z,100.00
2024-04-14T00:42:08.329Z,100.00
2024-04-14T00:44:11.475Z,100.00
2024-04-14T00:46:15.400Z,100.00
2024-04-14T00:48:18.846Z,100.00
2024-04-14T00:50:22.750Z,100.00
2024-04-14T00:52:26.497Z,100.00
2024-04-14T00:54:34.205Z,100.00
2024-04-14T00:56:37.498Z,100.00
2024-04-14T00:58:41.029Z,100.00
2024-04-14T01:00:45.014Z,100.00
2024-04-14T01:02:51.919Z,100.00
2024-04-14T01:04:55.246Z,100.00
2024-04-14T01:06:59.788Z,100.00
2024-04-14T01:09:05.254Z,100.00
2024-04-14T01:11:11.153Z,100.00
2024-04-14T01:13:14.336Z,100.00
2024-04-14T01:15:17.414Z,100.00
2024-04-14T01:17:20.654Z,100.00
2024-04-14T01:19:23.826Z,100.00
2024-04-14T01:21:30.424Z,100.00
2024-04-14T01:23:35.128Z,100.00
2024-04-14T01:25:40.966Z,100.00
2024-04-14T01:27:44.557Z,100.00
2024-04-14T01:29:47.743Z,100.00
2024-04-14T01:31:51.017Z,100.00
2024-04-14T01:33:54.451Z,100.00
2024-04-14T01:35:57.523Z,100.00
2024-04-14T01:38:09.192Z,100.00
2024-04-14T01:40:19.864Z,100.00
2024-04-14T01:42:25.882Z,100.00
2024-04-14T01:44:28.999Z,100.00
2024-04-14T01:46:32.999Z,100.00
2024-04-14T01:48:36.170Z,100.00
2024-04-14T01:50:39.911Z,100.00
2024-04-14T01:52:43.176Z,100.00
2024-04-14T01:54:46.411Z,100.00
2024-04-14T01:56:49.449Z,100.00
2024-04-14T01:58:55.648Z,100.00
2024-04-14T02:00:58.741Z,100.00
2024-04-14T02:03:02.285Z,100.00
2024-04-14T02:05:06.017Z,100.00
2024-04-14T02:07:09.208Z,100.00
2024-04-14T02:09:13.583Z,100.00
2024-04-14T02:11:16.745Z,100.00
2024-04-14T02:13:19.766Z,100.00
2024-04-14T02:15:25.785Z,100.00
2024-04-14T02:17:29.000Z,100.00
2024-04-14T02:19:32.568Z,100.00
2024-04-14T02:21:35.947Z,100.00
2024-04-14T02:23:40.268Z,100.00
2024-04-14T02:25:54.308Z,100.00
2024-04-14T02:27:57.484Z,100.00
2024-04-14T02:30:01.866Z,100.00
2024-04-14T02:32:08.173Z,100.00
2024-04-14T02:34:11.320Z,100.00
2024-04-14T02:36:14.500Z,100.00
2024-04-14T02:38:17.593Z,100.00
2024-04-14T02:40:21.305Z,100.00
2024-04-14T02:42:24.460Z,100.00
2024-04-14T02:44:27.875Z,100.00
2024-04-14T02:46:30.928Z,100.00
2024-04-14T02:48:36.921Z,100.00
2024-04-14T02:50:40.250Z,100.00
2024-04-14T02:52:43.424Z,100.00
2024-04-14T02:54:47.390Z,100.00
2024-04-14T02:56:51.052Z,100.00
2024-04-14T02:58:54.279Z,100.00
2024-04-14T03:01:01.614Z,100.00
2024-04-14T03:03:05.026Z,100.00
2024-04-14T03:05:11.200Z,100.00
2024-04-14T03:07:14.286Z,100.00
2024-04-14T03:09:17.423Z,100.00
2024-04-14T03:11:20.668Z,100.00
2024-04-14T03:13:23.919Z,100.00
2024-04-14T03:15:27.182Z,100.00
2024-04-14T03:17:30.412Z,100.00
2024-04-14T03:19:33.600Z,100.00
2024-04-14T03:21:39.540Z,100.00
2024-04-14T03:23:43.728Z,100.00
2024-04-14T03:25:46.845Z,100.00
2024-04-14T03:27:50.020Z,100.00
2024-04-14T03:29:53.124Z,100.00
2024-04-14T03:31:56.306Z,100.00
2024-04-14T03:33:59.699Z,100.00
2024-04-14T03:36:03.951Z,100.00
2024-04-14T03:38:09.825Z,100.00
2024-04-14T03:40:13.025Z,100.00
2024-04-14T03:42:16.188Z,100.00
2024-04-14T03:44:19.936Z,100.00
2024-04-14T03:46:23.238Z,100.00
2024-04-14T03:48:26.532Z,100.00
2024-04-14T03:50:29.845Z,100.00
2024-04-14T03:52:33.182Z,100.00
2024-04-14T03:54:39.873Z,100.00
2024-04-14T03:56:43.198Z,100.00
2024-04-14T03:58:46.323Z,100.00
2024-04-14T04:00:49.736Z,100.00
2024-04-14T04:02:53.156Z,100.00
2024-04-14T04:04:56.456Z,100.00
2024-04-14T04:06:59.697Z,100.00
2024-04-14T04:09:03.357Z,100.00
2024-04-14T04:11:09.629Z,100.00
2024-04-14T04:13:12.791Z,100.00
2024-04-14T04:15:17.426Z,100.00
2024-04-14T04:17:20.860Z,100.00
2024-04-14T04:19:27.415Z,100.00
2024-04-14T04:21:31.399Z,100.00
2024-04-14T04:23:34.854Z,100.00
2024-04-14T04:25:38.088Z,100.00
2024-04-14T04:27:43.976Z,100.00
2024-04-14T04:29:47.249Z,100.00
2024-04-14T04:31:50.393Z,100.00
2024-04-14T04:33:53.695Z,100.00
2024-04-14T04:35:58.115Z,100.00
2024-04-14T04:38:01.351Z,100.00
2024-04-14T04:40:05.317Z,100.00
2024-04-14T04:42:08.927Z,100.00
2024-04-14T04:44:14.808Z,100.00
2024-04-14T04:46:17.948Z,100.00
2024-04-14T04:48:21.286Z,100.00
2024-04-14T04:50:24.876Z,100.00
2024-04-14T04:52:28.006Z,100.00
2024-04-14T04:54:31.241Z,100.00
2024-04-14T04:56:34.555Z,100.00
2024-04-14T04:58:37.822Z,100.00
2024-04-14T05:00:52.929Z,100.00
2024-04-14T05:02:56.552Z,100.00
2024-04-14T05:04:59.595Z,100.00
2024-04-14T05:07:03.532Z,100.00
2024-04-14T05:09:06.645Z,100.00
2024-04-14T05:11:09.895Z,100.00
2024-04-14T05:13:13.070Z,100.00
2024-04-14T05:15:16.487Z,100.00
2024-04-14T05:17:22.394Z,100.00
2024-04-14T05:19:25.556Z,100.00
2024-04-14T05:21:28.740Z,100.00
2024-04-14T05:23:32.024Z,100.00
2024-04-14T05:25:35.084Z,100.00
2024-04-14T05:27:38.397Z,100.00
2024-04-14T05:29:42.888Z,100.00
2024-04-14T05:31:46.089Z,100.00
2024-04-14T05:33:58.395Z,100.00
2024-04-14T05:36:02.035Z,100.00
2024-04-14T05:38:05.376Z,100.00
2024-04-14T05:40:09.458Z,100.00
2024-04-14T05:42:12.588Z,100.00
2024-04-14T05:44:15.726Z,100.00
2024-04-14T05:46:18.728Z,100.00
2024-04-14T05:48:22.051Z,100.00
2024-04-14T05:50:27.939Z,100.00
2024-04-14T05:52:31.339Z,100.00
2024-04-14T05:54:34.719Z,100.00
2024-04-14T05:56:38.246Z,100.00
2024-04-14T05:58:41.459Z,100.00
2024-04-14T06:00:45.480Z,100.00
2024-04-14T06:02:49.081Z,100.00
2024-04-14T06:04:52.538Z,100.00
2024-04-14T06:06:58.464Z,100.00
2024-04-14T06:09:01.765Z,100.00
2024-04-14T06:11:05.614Z,100.00
2024-04-14T06:13:08.831Z,100.00
2024-04-14T06:15:11.885Z,100.00
2024-04-14T06:17:15.078Z,100.00
2024-04-14T06:19:18.770Z,100.00
2024-04-14T06:21:21.879Z,100.00
2024-04-14T06:23:27.857Z,99.11
2024-04-14T06:25:31.099Z,95.28
2024-04-14T06:27:34.413Z,97.80
2024-04-14T06:29:37.556Z,97.18
2024-04-14T06:31:40.673Z,95.30
2024-04-14T06:33:44.331Z,93.68
2024-04-14T06:35:47.573Z,93.52
2024-04-14T06:37:50.724Z,94.02
2024-04-14T06:39:56.601Z,94.99
2024-04-14T06:42:00.822Z,89.75
2024-04-14T06:44:04.080Z,93.40
2024-04-14T06:46:07.351Z,92.71
2024-04-14T06:48:10.507Z,90.92
2024-04-14T06:50:13.884Z,89.55
2024-04-14T06:52:17.096Z,89.09
2024-04-14T06:54:20.371Z,85.63
2024-04-14T06:56:26.291Z,84.82
2024-04-14T06:58:29.961Z,81.18
2024-04-14T07:00:35.001Z,81.80
2024-04-14T07:02:38.906Z,76.14
2024-04-14T07:04:42.322Z,76.57
2024-04-14T07:06:45.836Z,75.65
2024-04-14T07:08:48.955Z,72.93
2024-04-14T07:10:52.273Z,71.77
2024-04-14T07:12:58.093Z,70.71
2024-04-14T07:15:01.386Z,69.55
2024-04-14T07:17:04.928Z,71.80
2024-04-14T07:19:08.260Z,68.56
2024-04-14T07:21:11.298Z,70.00
2024-04-14T07:23:14.761Z,70.37
2024-04-14T07:25:17.998Z,72.55
2024-04-14T07:27:21.438Z,69.80
2024-04-14T07:29:27.286Z,69.11
2024-04-14T07:31:30.484Z,69.24
2024-04-14T07:33:34.334Z,69.41
2024-04-14T07:35:37.536Z,70.84
2024-04-14T07:37:40.749Z,68.78
2024-04-14T07:39:44.182Z,69.48
2024-04-14T07:41:47.627Z,69.14
2024-04-14T07:43:51.258Z,67.35
2024-04-14T07:45:57.683Z,69.36
2024-04-14T07:48:01.127Z,70.32
2024-04-14T07:50:04.622Z,70.48
2024-04-14T07:52:08.002Z,70.85
2024-04-14T07:54:11.812Z,72.24
2024-04-14T07:56:15.067Z,68.32
2024-04-14T07:58:18.137Z,68.68
2024-04-14T08:00:21.394Z,68.91
2024-04-14T08:02:27.249Z,68.62
2024-04-14T08:04:30.667Z,67.14
2024-04-14T08:06:33.930Z,65.30
2024-04-14T08:08:37.286Z,64.66
2024-04-14T08:10:40.433Z,63.15
2024-04-14T08:12:43.726Z,63.76
2024-04-14T08:14:46.929Z,65.35
2024-04-14T08:16:50.371Z,62.15
2024-04-14T08:18:56.377Z,63.00
2024-04-14T08:21:00.508Z,61.73
2024-04-14T08:23:03.739Z,62.56
2024-04-14T08:25:07.629Z,62.96
2024-04-14T08:27:10.924Z,62.28
2024-04-14T08:29:14.099Z,61.33
2024-04-14T08:31:17.277Z,59.35
2024-04-14T08:33:20.526Z,62.19
2024-04-14T08:35:26.657Z,64.16
2024-04-14T08:37:30.250Z,62.06
2024-04-14T08:39:33.516Z,62.08
2024-04-14T08:41:43.205Z,64.65
2024-04-14T08:43:46.884Z,60.54
2024-04-14T08:45:52.224Z,62.03
2024-04-14T08:47:56.193Z,61.72
2024-04-14T08:50:02.120Z,60.72
2024-04-14T08:52:10.317Z,63.91
2024-04-14T08:54:13.614Z,62.92
2024-04-14T08:56:17.052Z,61.45
2024-04-14T08:58:22.227Z,60.34
2024-04-14T09:00:26.459Z,61.53
2024-04-14T09:02:30.395Z,60.67
2024-04-14T09:04:33.615Z,60.72
2024-04-14T09:06:37.702Z,61.36
2024-04-14T09:08:43.687Z,62.18
2024-04-14T09:10:46.998Z,61.08
2024-04-14T09:12:50.351Z,61.71
2024-04-14T09:14:53.488Z,59.28
2024-04-14T09:16:56.865Z,61.05
2024-04-14T09:19:00.058Z,61.54
2024-04-14T09:21:03.721Z,60.45
2024-04-14T09:23:06.857Z,62.37
2024-04-14T09:25:16.086Z,59.94
2024-04-14T09:27:21.379Z,61.08
2024-04-14T09:29:24.847Z,58.54
2024-04-14T09:31:28.949Z,60.64
2024-04-14T09:33:33.576Z,61.79
2024-04-14T09:35:36.808Z,59.36
2024-04-14T09:37:40.866Z,58.54
2024-04-14T09:39:45.619Z,58.19
2024-04-14T09:41:53.646Z,57.51
2024-04-14T09:44:00.064Z,57.94
2024-04-14T09:46:05.671Z,56.98
2024-04-14T09:48:10.547Z,58.19
2024-04-14T09:50:13.949Z,57.70
2024-04-14T09:52:18.994Z,59.20
2024-04-14T09:54:24.200Z,58.38
2024-04-14T09:56:27.472Z,58.63
2024-04-14T09:58:33.446Z,56.56
2024-04-14T10:00:38.564Z,58.54
2024-04-14T10:02:43.456Z,57.70
2024-04-14T10:04:50.138Z,56.16
2024-04-14T10:06:54.424Z,55.79
2024-04-14T10:08:58.071Z,52.95
2024-04-14T10:11:03.150Z,52.80
2024-04-14T10:13:09.734Z,52.61
2024-04-14T10:15:16.873Z,49.62
2024-04-14T10:17:20.700Z,52.17
2024-04-14T10:19:24.230Z,50.48
2024-04-14T10:21:27.475Z,47.49
2024-04-14T10:23:31.035Z,46.71
2024-04-14T10:25:34.333Z,47.29
2024-04-14T10:27:38.312Z,48.41
2024-04-14T10:29:41.567Z,49.24
2024-04-14T10:31:53.776Z,50.96
2024-04-14T10:34:08.285Z,49.83
2024-04-14T10:36:13.360Z,48.28
2024-04-14T10:38:21.818Z,48.15
2024-04-14T10:40:25.155Z,49.77
2024-04-14T10:42:28.369Z,48.02
2024-04-14T10:44:31.527Z,46.57
2024-04-14T10:46:34.708Z,48.47
2024-04-14T10:48:43.129Z,46.92
2024-04-14T10:50:47.983Z,47.64
2024-04-14T10:52:51.404Z,47.56
2024-04-14T10:54:54.506Z,45.46
2024-04-14T10:56:57.772Z,45.29
2024-04-14T10:59:00.833Z,46.70
2024-04-14T11:01:04.924Z,44.37
2024-04-14T11:03:08.387Z,45.39
2024-04-14T11:05:14.731Z,46.20
2024-04-14T11:07:18.546Z,46.82
2024-04-14T11:09:25.564Z,44.79
2024-04-14T11:11:28.868Z,45.91
2024-04-14T11:13:32.942Z,46.21
2024-04-14T11:15:38.260Z,44.60
2024-04-14T11:17:42.959Z,45.12
2024-04-14T11:19:47.622Z,46.53
2024-04-14T11:21:53.589Z,46.01
2024-04-14T11:23:56.733Z,45.84
2024-04-14T11:25:59.994Z,46.16
2024-04-14T11:28:03.134Z,45.47
2024-04-14T11:30:07.395Z,46.22
2024-04-14T11:32:31.415Z,47.71
2024-04-14T11:34:34.725Z,46.66
2024-04-14T11:36:39.758Z,45.64
2024-04-14T11:38:49.459Z,44.56
2024-04-14T11:40:53.129Z,47.21
2024-04-14T11:42:56.795Z,44.86
2024-04-14T11:45:00.220Z,45.56
2024-04-14T11:47:03.515Z,45.89
2024-04-14T11:49:06.826Z,45.60
2024-04-14T11:51:10.054Z,44.32
2024-04-14T11:53:13.370Z,45.70
2024-04-14T11:55:19.380Z,44.62
2024-04-14T11:57:24.428Z,46.39
2024-04-14T11:59:27.610Z,45.33
2024-04-14T12:01:30.933Z,45.70
2024-04-14T12:03:34.304Z,45.38
2024-04-14T12:05:37.397Z,46.19
2024-04-14T12:07:40.833Z,46.64
2024-04-14T12:09:45.231Z,45.83
2024-04-14T12:11:52.231Z,45.52
2024-04-14T12:13:55.356Z,45.90
2024-04-14T12:15:58.845Z,45.35
2024-04-14T12:18:01.990Z,46.49
2024-04-14T12:20:06.075Z,46.03
2024-04-14T12:22:09.180Z,46.89
2024-04-14T12:24:13.006Z,46.57
2024-04-14T12:26:16.931Z,44.87
2024-04-14T12:28:23.316Z,44.18
2024-04-14T12:30:35.773Z,46.18
2024-04-14T12:32:43.846Z,45.50
2024-04-14T12:34:46.938Z,46.03
2024-04-14T12:36:50.266Z,45.67
2024-04-14T12:38:53.483Z,43.53
2024-04-14T12:40:56.669Z,44.15
2024-04-14T12:43:00.538Z,44.95
2024-04-14T12:45:07.325Z,44.27
2024-04-14T12:47:10.406Z,43.35
2024-04-14T12:49:15.172Z,43.46
2024-04-14T12:51:18.373Z,43.42
2024-04-14T12:53:22.123Z,44.38
2024-04-14T12:55:25.933Z,44.12
2024-04-14T12:57:29.709Z,43.67
2024-04-14T12:59:32.870Z,43.72
2024-04-14T13:01:39.045Z,43.45
2024-04-14T13:03:42.294Z,43.83
2024-04-14T13:05:48.808Z,45.21
2024-04-14T13:07:52.168Z,44.91
2024-04-14T13:09:55.665Z,45.79
2024-04-14T13:11:58.777Z,43.90
2024-04-14T13:14:01.984Z,44.64
2024-04-14T13:16:05.769Z,44.31
2024-04-14T13:18:11.896Z,44.67
2024-04-14T13:20:15.064Z,44.82
2024-04-14T13:22:18.435Z,45.10
2024-04-14T13:24:21.828Z,44.65
2024-04-14T13:26:25.202Z,43.57
2024-04-14T13:28:29.352Z,42.59
2024-04-14T13:30:32.630Z,41.94
2024-04-14T13:32:35.924Z,43.16
2024-04-14T13:34:43.193Z,43.13
2024-04-14T13:36:46.466Z,41.72
2024-04-14T13:38:52.431Z,42.87
2024-04-14T13:40:55.595Z,43.42
2024-04-14T13:42:58.772Z,45.27
2024-04-14T13:45:02.004Z,51.47
2024-04-14T13:47:05.897Z,54.72
2024-04-14T13:49:10.635Z,57.31
2024-04-14T13:51:16.536Z,58.82
2024-04-14T13:53:19.697Z,59.70
2024-04-14T13:55:23.049Z,60.97
2024-04-14T13:57:26.478Z,63.71
2024-04-14T13:59:30.308Z,63.36
2024-04-14T14:01:33.746Z,67.58
2024-04-14T14:03:37.055Z,68.33
2024-04-14T14:05:40.349Z,67.22
2024-04-14T14:07:46.272Z,70.02
2024-04-14T14:09:49.587Z,71.24
2024-04-14T14:11:52.918Z,67.39
2024-04-14T14:13:56.270Z,70.29
2024-04-14T14:15:59.859Z,71.22
2024-04-14T14:18:03.070Z,69.96
2024-04-14T14:20:08.438Z,68.49
2024-04-14T14:22:11.876Z,66.38
2024-04-14T14:24:17.742Z,68.48
2024-04-14T14:26:22.637Z,68.37
2024-04-14T14:28:25.868Z,67.25
2024-04-14T14:30:29.423Z,64.08
2024-04-14T14:32:33.947Z,66.04
2024-04-14T14:34:55.896Z,65.74
2024-04-14T14:36:59.346Z,65.88
2024-04-14T14:39:02.680Z,64.26
2024-04-14T14:41:09.708Z,63.61
2024-04-14T14:43:13.601Z,63.14
2024-04-14T14:45:17.001Z,62.78
2024-04-14T14:47:20.186Z,63.35
2024-04-14T14:49:24.087Z,62.98
2024-04-14T14:51:27.342Z,62.67
2024-04-14T14:53:30.486Z,61.32
2024-04-14T14:55:33.717Z,62.78
2024-04-14T14:57:39.584Z,62.96
2024-04-14T14:59:42.789Z,63.29
2024-04-14T15:01:46.082Z,64.70
2024-04-14T15:03:53.319Z,63.14
2024-04-14T15:05:57.507Z,63.97
2024-04-14T15:08:00.635Z,63.52
2024-04-14T15:10:04.335Z,63.54
2024-04-14T15:12:10.776Z,62.39
2024-04-14T15:14:18.187Z,63.19
2024-04-14T15:16:21.355Z,62.72
2024-04-14T15:18:25.377Z,62.80
2024-04-14T15:20:28.505Z,61.46
2024-04-14T15:22:31.987Z,61.78
2024-04-14T15:24:36.338Z,62.68
2024-04-14T15:26:40.889Z,61.95
2024-04-14T15:28:44.092Z,61.43
2024-04-14T15:30:50.429Z,62.85
2024-04-14T15:32:53.740Z,61.60
2024-04-14T15:34:56.890Z,61.83
2024-04-14T15:37:00.276Z,60.27
2024-04-14T15:39:03.926Z,61.25
2024-04-14T15:41:07.415Z,61.33
2024-04-14T15:43:10.780Z,59.90
2024-04-14T15:45:17.070Z,60.01
2024-04-14T15:47:24.142Z,60.09
2024-04-14T15:49:27.739Z,59.60
2024-04-14T15:51:30.953Z,60.15
2024-04-14T15:53:34.198Z,60.78
2024-04-14T15:55:38.579Z,61.23
2024-04-14T15:57:43.000Z,61.71
2024-04-14T15:59:46.368Z,61.19
2024-04-14T16:01:50.092Z,61.09
2024-04-14T16:03:55.903Z,62.64
2024-04-14T16:05:59.489Z,62.16
2024-04-14T16:08:02.712Z,61.65
2024-04-14T16:10:07.780Z,62.19
2024-04-14T16:12:12.074Z,62.96
2024-04-14T16:14:15.270Z,61.80
2024-04-14T16:16:18.469Z,63.11
2024-04-14T16:18:22.132Z,63.99
2024-04-14T16:20:28.039Z,61.86
2024-04-14T16:22:31.276Z,62.59
2024-04-14T16:24:34.520Z,62.75
2024-04-14T16:26:38.517Z,61.88
2024-04-14T16:28:43.085Z,62.23
2024-04-14T16:30:46.291Z,62.39
2024-04-14T16:32:49.649Z,65.53
2024-04-14T16:34:52.976Z,63.15
2024-04-14T16:36:58.818Z,63.55
2024-04-14T16:39:02.486Z,62.52
2024-04-14T16:41:07.307Z,62.56
2024-04-14T16:43:10.914Z,61.52
2024-04-14T16:45:14.270Z,61.39
2024-04-14T16:47:17.585Z,59.84
2024-04-14T16:49:20.867Z,60.09
2024-04-14T16:51:28.500Z,60.43
2024-04-14T16:53:34.898Z,60.42
2024-04-14T16:55:38.155Z,60.54
2024-04-14T16:57:41.407Z,60.14
2024-04-14T16:59:45.286Z,60.89
2024-04-14T17:01:48.691Z,60.59
2024-04-14T17:03:52.258Z,61.35
2024-04-14T17:05:56.218Z,60.64
2024-04-14T17:07:59.621Z,60.76
2024-04-14T17:10:06.470Z,60.52
2024-04-14T17:12:10.306Z,60.14
2024-04-14T17:14:13.825Z,59.46
2024-04-14T17:16:17.003Z,61.87
2024-04-14T17:18:20.665Z,66.05
2024-04-14T17:20:23.950Z,66.91
2024-04-14T17:22:27.391Z,69.54
2024-04-14T17:24:30.914Z,71.17
2024-04-14T17:26:37.015Z,68.64
2024-04-14T17:28:40.123Z,69.86
2024-04-14T17:30:43.458Z,69.68
2024-04-14T17:32:46.558Z,71.54
2024-04-14T17:34:49.839Z,69.01
2024-04-14T17:36:53.069Z,67.18
2024-04-14T17:38:58.338Z,67.99
2024-04-14T17:41:01.460Z,68.85
2024-04-14T17:43:07.681Z,71.88
2024-04-14T17:45:10.862Z,73.05
2024-04-14T17:47:14.465Z,75.60
2024-04-14T17:49:17.605Z,79.13
2024-04-14T17:51:22.171Z,80.22
2024-04-14T17:53:25.516Z,80.72
2024-04-14T17:55:28.719Z,79.67
2024-04-14T17:57:31.852Z,78.85
2024-04-14T17:59:38.547Z,82.15
2024-04-14T18:01:41.808Z,84.58
2024-04-14T18:03:46.110Z,86.44
2024-04-14T18:05:49.280Z,84.76
2024-04-14T18:07:52.761Z,82.14
2024-04-14T18:09:56.002Z,81.94
2024-04-14T18:11:59.405Z,79.36
2024-04-14T18:14:02.572Z,79.37
2024-04-14T18:16:10.143Z,80.40
2024-04-14T18:18:13.489Z,80.84
2024-04-14T18:20:16.867Z,81.41
2024-04-14T18:22:20.010Z,81.39
2024-04-14T18:24:23.318Z,80.50
2024-04-14T18:26:26.428Z,80.55
2024-04-14T18:28:29.719Z,82.17
2024-04-14T18:30:32.823Z,82.17
2024-04-14T18:32:40.008Z,82.26
2024-04-14T18:34:43.179Z,82.53
2024-04-14T18:36:46.393Z,83.52
2024-04-14T18:38:49.464Z,85.39
2024-04-14T18:40:52.867Z,85.14
2024-04-14T18:42:55.941Z,85.00
2024-04-14T18:44:59.236Z,86.28
2024-04-14T18:47:02.386Z,85.97
2024-04-14T18:49:08.301Z,84.93
2024-04-14T18:51:11.430Z,85.93
2024-04-14T18:53:15.809Z,87.15
2024-04-14T18:55:19.947Z,86.94
2024-04-14T18:57:23.081Z,87.11
2024-04-14T18:59:26.215Z,89.84
2024-04-14T19:01:29.806Z,91.17
2024-04-14T19:03:34.543Z,89.73
2024-04-14T19:05:42.448Z,89.11
2024-04-14T19:07:45.561Z,90.94
2024-04-14T19:09:48.774Z,90.56
2024-04-14T19:11:51.878Z,92.81
2024-04-14T19:13:56.524Z,91.94
2024-04-14T19:15:59.911Z,92.09
2024-04-14T19:18:03.382Z,91.35
2024-04-14T19:20:07.863Z,91.50
2024-04-14T19:22:13.701Z,88.93
2024-04-14T19:24:16.799Z,89.17
2024-04-14T19:26:21.030Z,86.70
2024-04-14T19:28:25.794Z,85.82
2024-04-14T19:30:29.256Z,85.43
2024-04-14T19:32:32.429Z,86.75
2024-04-14T19:34:35.693Z,87.08
2024-04-14T19:36:38.811Z,88.98
2024-04-14T19:38:45.006Z,88.70
2024-04-14T19:40:48.078Z,90.74
2024-04-14T19:42:51.275Z,91.77
2024-04-14T19:44:54.612Z,90.96
2024-04-14T19:46:57.748Z,91.17
2024-04-14T19:49:00.963Z,91.56
2024-04-14T19:51:04.629Z,91.18
2024-04-14T19:53:08.003Z,89.58
2024-04-14T19:55:13.963Z,88.37
2024-04-14T19:57:17.319Z,89.43
2024-04-14T19:59:20.479Z,89.06
2024-04-14T20:01:24.603Z,88.86
2024-04-14T20:03:30.848Z,89.50
2024-04-14T20:05:34.078Z,90.43
2024-04-14T20:07:38.441Z,91.64
2024-04-14T20:09:41.554Z,91.34
2024-04-14T20:11:47.427Z,89.96
2024-04-14T20:13:50.821Z,90.29
2024-04-14T20:15:54.052Z,89.71
2024-04-14T20:17:58.789Z,90.28
2024-04-14T20:20:02.242Z,90.98
2024-04-14T20:22:05.649Z,92.24
2024-04-14T20:24:08.975Z,92.07
2024-04-14T20:26:12.093Z,92.23
2024-04-14T20:28:19.431Z,91.67
2024-04-14T20:30:22.550Z,91.82
2024-04-14T20:32:25.896Z,93.80
2024-04-14T20:34:29.032Z,94.75
2024-04-14T20:36:32.298Z,95.96
2024-04-14T20:38:35.508Z,96.75
2024-04-14T20:40:43.005Z,95.24
2024-04-14T20:42:46.285Z,94.58
2024-04-14T20:44:52.270Z,96.26
2024-04-14T20:46:55.349Z,96.12
2024-04-14T20:48:58.470Z,96.82
2024-04-14T20:51:01.751Z,96.74
2024-04-14T20:53:05.170Z,95.92
2024-04-14T20:55:08.498Z,95.56
2024-04-14T20:57:11.957Z,95.50
2024-04-14T20:59:15.359Z,95.67
2024-04-14T21:01:21.370Z,95.41
2024-04-14T21:03:24.645Z,95.86
2024-04-14T21:05:27.920Z,95.83
2024-04-14T21:07:30.967Z,95.97
2024-04-14T21:09:34.196Z,95.81
2024-04-14T21:11:37.433Z,95.51
2024-04-14T21:13:42.426Z,95.48
2024-04-14T21:15:45.535Z,95.20
2024-04-14T21:17:51.611Z,95.24
2024-04-14T21:19:55.458Z,95.10
2024-04-14T21:21:58.831Z,94.54
2024-04-14T21:24:01.955Z,94.54
2024-04-14T21:26:06.677Z,94.39
2024-04-14T21:28:09.961Z,94.41
2024-04-14T21:30:13.160Z,96.65
2024-04-14T21:32:16.224Z,96.73
2024-04-14T21:34:22.657Z,96.88
2024-04-14T21:36:25.812Z,99.29
2024-04-14T21:38:29.375Z,98.95
2024-04-14T21:40:32.450Z,99.45
2024-04-14T21:42:35.679Z,100.00
2024-04-14T21:44:38.888Z,100.00
2024-04-14T21:46:42.218Z,100.00
2024-04-14T21:48:46.402Z,100.00
2024-04-14T21:50:58.166Z,100.00
2024-04-14T21:53:01.274Z,100.00
2024-04-14T21:55:04.854Z,100.00
2024-04-14T21:57:07.977Z,100.00
2024-04-14T21:59:11.157Z,100.00
2024-04-14T22:01:15.372Z,100.00
2024-04-14T22:03:18.763Z,100.00
2024-04-14T22:05:21.859Z,100.00
2024-04-14T22:07:27.858Z,99.62
2024-04-14T22:09:31.000Z,99.39
2024-04-14T22:11:34.239Z,99.83
2024-04-14T22:13:37.803Z,100.00
2024-04-14T22:15:41.238Z,100.00
2024-04-14T22:17:44.424Z,100.00
2024-04-14T22:19:47.759Z,100.00
2024-04-14T22:21:50.863Z,100.00
2024-04-14T22:23:56.817Z,99.92
2024-04-14T22:25:59.928Z,99.86
2024-04-14T22:28:03.127Z,99.86
2024-04-14T22:30:07.900Z,99.25
2024-04-14T22:32:11.140Z,100.00
2024-04-14T22:34:14.251Z,100.00
2024-04-14T22:36:17.408Z,100.00
2024-04-14T22:38:21.072Z,100.00
2024-04-14T22:40:27.047Z,100.00
2024-04-14T22:42:30.186Z,100.00
2024-04-14T22:44:33.536Z,100.00
2024-04-14T22:46:36.587Z,100.00
2024-04-14T22:48:39.850Z,100.00
2024-04-14T22:50:42.947Z,100.00
2024-04-14T22:52:46.054Z,100.00
2024-04-14T22:54:49.318Z,100.00
2024-04-14T22:56:55.144Z,100.00
2024-04-14T22:58:58.205Z,100.00
2024-04-14T23:01:01.616Z,100.00
2024-04-14T23:03:05.340Z,100.00
2024-04-14T23:05:08.717Z,99.83
2024-04-14T23:07:11.906Z,99.29
2024-04-14T23:09:15.282Z,99.08
2024-04-14T23:11:19.356Z,98.71
2024-04-14T23:13:25.313Z,98.96
2024-04-14T23:15:28.450Z,99.00
2024-04-14T23:17:31.693Z,99.33
2024-04-14T23:19:34.808Z,99.36
2024-04-14T23:21:38.200Z,99.22
2024-04-14T23:23:41.255Z,99.68
2024-04-14T23:25:44.501Z,99.54
2024-04-14T23:27:47.598Z,99.50
2024-04-14T23:29:54.615Z,99.34
2024-04-14T23:31:57.777Z,99.88
2024-04-14T23:34:02.681Z,100.00
2024-04-14T23:36:06.438Z,100.00
2024-04-14T23:38:09.552Z,100.00
2024-04-14T23:40:12.712Z,100.00
2024-04-14T23:42:15.931Z,100.00
2024-04-14T23:44:19.085Z,100.00
2024-04-14T23:46:25.034Z,100.00
2024-04-14T23:48:28.191Z,100.00
2024-04-14T23:50:31.386Z,100.00
2024-04-14T23:52:34.900Z,100.00
2024-04-14T23:54:38.119Z,100.00
2024-04-14T23:56:41.142Z,100.00
2024-04-14T23:58:44.262Z,100.00
